createdAt,value
2019-04-04T06:38:03.735Z,60.24
2019-04-04T06:39:03.679Z,65.22
2019-04-04T06:40:03.679Z,68.10
2019-04-04T06:41:03.680Z,69.58
2019-04-04T06:42:04.058Z,70.72
2019-04-04T06:43:04.088Z,71.81
2019-04-04T06:44:03.639Z,73.57
2019-04-04T06:45:03.653Z,74.12
2019-04-04T06:46:03.648Z,73.47
2019-04-04T06:47:03.636Z,73.39
2019-04-04T06:48:03.593Z,73.81
2019-04-04T06:49:04.362Z,74.57
2019-04-04T06:50:07.004Z,74.74
2019-04-04T06:51:03.549Z,74.33
2019-04-04T06:52:03.573Z,74.02
2019-04-04T06:53:03.536Z,74.33
2019-04-04T06:54:03.560Z,74.43
2019-04-04T06:55:03.530Z,74.88
2019-04-04T06:56:03.498Z,74.88
2019-04-04T06:57:03.876Z,75.40
2019-04-04T06:58:03.478Z,75.29
2019-04-04T06:59:03.505Z,75.40
2019-04-04T07:00:03.470Z,75.40
2019-04-04T07:01:03.448Z,75.15
2019-04-04T07:02:05.218Z,74.77
2019-04-04T07:03:03.448Z,72.78
2019-04-04T07:04:03.460Z,71.30
2019-04-04T07:05:04.175Z,71.30
2019-04-04T07:06:03.429Z,71.44
2019-04-04T07:07:03.379Z,72.06
2019-04-04T07:08:03.375Z,71.54
2019-04-04T07:09:03.354Z,71.61
2019-04-04T07:10:03.378Z,70.89
2019-04-04T07:11:06.982Z,70.89
2019-04-04T07:12:06.492Z,71.26
2019-04-04T07:13:20.104Z,70.00
2019-04-04T07:14:04.314Z,69.14
2019-04-04T07:15:03.330Z,67.97
2019-04-04T07:16:07.042Z,68.01
2019-04-04T07:17:03.406Z,68.35
2019-04-04T07:18:03.256Z,69.07
2019-04-04T07:19:03.281Z,68.66
2019-04-04T07:20:03.237Z,68.66
2019-04-04T07:21:03.731Z,69.62
2019-04-04T07:22:03.216Z,69.59
2019-04-04T07:23:03.204Z,68.21
2019-04-04T07:24:03.233Z,68.01
2019-04-04T07:25:05.818Z,68.45
2019-04-04T07:26:03.180Z,68.73
2019-04-04T07:27:03.168Z,67.77
2019-04-04T07:28:03.147Z,67.02
2019-04-04T07:29:03.152Z,67.05
2019-04-04T07:30:03.263Z,67.77
2019-04-04T07:31:03.116Z,67.77
2019-04-04T07:32:03.147Z,67.66
2019-04-04T07:33:03.149Z,67.02
2019-04-04T07:34:03.126Z,65.80
2019-04-04T07:35:03.173Z,64.01
2019-04-04T07:36:03.056Z,63.06
2019-04-04T07:37:03.047Z,63.81
2019-04-04T07:38:03.495Z,63.57
2019-04-04T07:39:03.055Z,63.03
2019-04-04T07:40:04.364Z,62.08
2019-04-04T07:41:03.017Z,61.29
2019-04-04T07:42:03.017Z,61.60
2019-04-04T07:43:02.992Z,62.45
2019-04-04T07:44:02.980Z,63.06
2019-04-04T07:45:02.965Z,62.88
2019-04-04T07:46:15.614Z,63.50
2019-04-04T07:47:03.984Z,63.06
2019-04-04T07:48:02.984Z,62.62
2019-04-04T07:49:02.956Z,61.77
2019-04-04T07:50:02.945Z,61.64
2019-04-04T07:51:02.937Z,61.33
2019-04-04T07:52:02.887Z,60.79
2019-04-04T07:53:04.875Z,60.49
2019-04-04T07:54:02.874Z,60.05
2019-04-04T07:55:02.870Z,59.74
2019-04-04T07:56:02.857Z,59.02
2019-04-04T07:57:02.957Z,59.56
2019-04-04T07:58:03.576Z,59.94
2019-04-04T07:59:02.804Z,59.77
2019-04-04T08:00:02.820Z,59.94
2019-04-04T08:01:02.826Z,59.02
2019-04-04T08:02:02.848Z,58.69
2019-04-04T08:03:02.787Z,59.00
2019-04-04T08:04:02.754Z,59.61
2019-04-04T08:05:02.738Z,59.07
2019-04-04T08:06:02.726Z,57.64
2019-04-04T08:07:02.774Z,58.25
2019-04-04T08:08:02.709Z,57.53
2019-04-04T08:09:02.686Z,57.87
2019-04-04T08:10:02.686Z,58.72
2019-04-04T08:11:02.677Z,59.43
2019-04-04T08:12:02.738Z,59.92
2019-04-04T08:13:02.646Z,59.48
2019-04-04T08:14:02.655Z,57.84
2019-04-04T08:15:02.645Z,57.61
2019-04-04T08:16:02.625Z,56.99
2019-04-04T08:17:02.667Z,56.87
2019-04-04T08:18:02.659Z,56.97
2019-04-04T08:19:02.639Z,56.66
2019-04-04T08:20:02.629Z,56.35
2019-04-04T08:21:05.565Z,55.64
2019-04-04T08:22:02.565Z,56.25
2019-04-04T08:23:02.568Z,56.76
2019-04-04T08:24:02.605Z,56.87
2019-04-04T08:25:02.527Z,56.33
2019-04-04T08:26:02.507Z,55.69
2019-04-04T08:27:02.509Z,54.77
2019-04-04T08:28:02.499Z,54.64
2019-04-04T08:29:02.547Z,54.13
2019-04-04T08:30:02.492Z,53.49
2019-04-04T08:31:02.466Z,53.19
2019-04-04T08:32:02.498Z,53.27
2019-04-04T08:33:02.476Z,53.16
2019-04-04T08:34:02.428Z,52.83
2019-04-04T08:35:02.408Z,52.12
2019-04-04T08:36:06.118Z,51.58
2019-04-04T08:37:02.442Z,51.79
2019-04-04T08:38:02.395Z,50.03
2019-04-04T08:39:02.357Z,50.13
2019-04-04T08:40:02.401Z,50.69
2019-04-04T08:41:02.351Z,50.99
2019-04-04T08:42:02.402Z,51.51
2019-04-04T08:43:02.338Z,50.77
2019-04-04T08:44:02.307Z,49.75
2019-04-04T08:45:02.328Z,50.87
2019-04-04T08:46:02.315Z,51.25
2019-04-04T08:47:02.307Z,50.31
2019-04-04T08:48:02.267Z,49.88
2019-04-04T08:49:02.254Z,49.78
2019-04-04T08:50:02.247Z,48.94
2019-04-04T08:51:02.299Z,48.54
2019-04-04T08:52:02.274Z,49.15
2019-04-04T08:53:02.222Z,48.23
2019-04-04T08:54:02.234Z,48.76
2019-04-04T08:55:02.200Z,48.66
2019-04-04T08:56:02.212Z,49.04
2019-04-04T08:57:02.217Z,48.66
2019-04-04T08:58:02.178Z,48.96
2019-04-04T08:59:02.193Z,49.48
2019-04-04T09:00:02.149Z,48.43
2019-04-04T09:01:02.187Z,48.51
2019-04-04T09:02:02.162Z,48.59
2019-04-04T09:03:02.102Z,47.66
2019-04-04T09:04:02.089Z,47.14
2019-04-04T09:05:11.685Z,47.22
2019-04-04T09:06:03.065Z,47.74
2019-04-04T09:07:02.069Z,47.33
2019-04-04T09:08:02.061Z,47.33
2019-04-04T09:09:02.047Z,46.90
2019-04-04T09:10:02.071Z,46.29
2019-04-04T09:11:02.026Z,46.82
2019-04-04T09:12:02.002Z,46.29
2019-04-04T09:13:02.018Z,46.29
2019-04-04T09:14:02.057Z,46.70
2019-04-04T09:15:01.966Z,46.39
2019-04-04T09:16:01.959Z,47.02
2019-04-04T09:17:01.954Z,47.10
2019-04-04T09:18:01.935Z,46.29
2019-04-04T09:19:02.036Z,46.70
2019-04-04T09:20:01.939Z,47.10
2019-04-04T09:21:01.904Z,47.33
2019-04-04T09:22:01.896Z,48.14
2019-04-04T09:23:01.883Z,47.45
2019-04-04T09:24:01.871Z,48.19
2019-04-04T09:25:01.881Z,49.02
2019-04-04T09:26:05.696Z,50.57
2019-04-04T09:27:01.880Z,49.43
2019-04-04T09:28:01.831Z,49.22
2019-04-04T09:29:01.831Z,49.37
2019-04-04T09:30:01.811Z,49.78
2019-04-04T09:31:01.809Z,49.96
2019-04-04T09:32:01.879Z,50.24
2019-04-04T09:33:01.769Z,49.20
2019-04-04T09:34:01.778Z,49.10
2019-04-04T09:35:01.770Z,49.53
2019-04-04T09:36:01.744Z,49.86
2019-04-04T09:37:01.770Z,50.57
2019-04-04T09:38:01.720Z,50.67
2019-04-04T09:39:01.703Z,50.47
2019-04-04T09:40:01.707Z,50.85
2019-04-04T09:41:01.695Z,49.53
2019-04-04T09:42:01.716Z,49.43
2019-04-04T09:43:01.668Z,49.71
2019-04-04T09:44:01.659Z,49.71
2019-04-04T09:45:01.640Z,49.61
2019-04-04T09:46:01.626Z,50.34
2019-04-04T09:47:05.507Z,50.16
2019-04-04T09:48:01.612Z,50.80
2019-04-04T09:49:01.591Z,51.41
2019-04-04T09:50:01.581Z,50.49
2019-04-04T09:51:01.572Z,51.48
2019-04-04T09:52:01.599Z,50.26
2019-04-04T09:53:01.549Z,49.35
2019-04-04T09:54:01.581Z,50.65
2019-04-04T09:55:01.539Z,49.53
2019-04-04T09:56:01.532Z,50.47
2019-04-04T09:57:01.510Z,51.28
2019-04-04T09:58:01.524Z,50.87
2019-04-04T09:59:01.550Z,50.98
2019-04-04T10:00:01.485Z,49.86
2019-04-04T10:01:01.467Z,51.08
2019-04-04T10:02:01.450Z,49.86
2019-04-04T10:03:01.504Z,49.84
2019-04-04T10:04:01.460Z,49.43
2019-04-04T10:05:01.419Z,49.63
2019-04-04T10:06:01.412Z,50.34
2019-04-04T10:07:01.393Z,50.34
2019-04-04T10:08:01.395Z,50.87
2019-04-04T10:09:14.692Z,49.84
2019-04-04T10:10:02.363Z,50.16
2019-04-04T10:11:01.405Z,50.59
2019-04-04T10:12:01.346Z,51.64
2019-04-04T10:13:01.337Z,52.15
2019-04-04T10:14:03.971Z,51.74
2019-04-04T10:15:01.371Z,52.45
2019-04-04T10:16:01.373Z,52.04
2019-04-04T10:17:01.314Z,51.94
2019-04-04T10:18:01.285Z,52.55
2019-04-04T10:19:01.261Z,52.55
2019-04-04T10:20:01.268Z,52.15
2019-04-04T10:21:11.285Z,51.74
2019-04-04T10:22:02.225Z,51.86
2019-04-04T10:23:01.243Z,52.68
2019-04-04T10:24:01.203Z,52.58
2019-04-04T10:25:01.208Z,52.55
2019-04-04T10:26:01.214Z,52.25
2019-04-04T10:27:01.210Z,53.09
2019-04-04T10:28:01.153Z,53.83
2019-04-04T10:29:01.156Z,53.50
2019-04-04T10:30:01.212Z,53.80
2019-04-04T10:31:01.144Z,52.76
2019-04-04T10:32:01.129Z,52.25
2019-04-04T10:33:01.146Z,52.53
2019-04-04T10:34:01.103Z,52.02
2019-04-04T10:35:01.106Z,52.30
2019-04-04T10:36:01.101Z,51.39
2019-04-04T10:37:01.095Z,51.16
2019-04-04T10:38:01.052Z,50.98
2019-04-04T10:39:01.103Z,52.22
2019-04-04T10:40:01.034Z,51.84
2019-04-04T10:41:01.015Z,52.35
2019-04-04T10:42:01.004Z,52.55
2019-04-04T10:43:00.995Z,52.33
2019-04-04T10:44:01.044Z,51.61
2019-04-04T10:45:00.992Z,51.51
2019-04-04T10:46:00.995Z,51.94
2019-04-04T10:47:00.964Z,52.04
2019-04-04T10:48:00.954Z,52.35
2019-04-04T10:49:00.927Z,53.50
2019-04-04T10:50:00.921Z,53.29
2019-04-04T10:51:00.980Z,53.09
2019-04-04T10:52:00.895Z,52.35
2019-04-04T10:53:00.887Z,52.25
2019-04-04T10:54:00.927Z,52.35
2019-04-04T10:55:01.639Z,52.35
2019-04-04T10:56:00.865Z,52.48
2019-04-04T10:57:00.866Z,52.76
2019-04-04T10:58:01.707Z,52.66
2019-04-04T10:59:00.827Z,52.33
2019-04-04T11:00:03.210Z,51.53
2019-04-04T11:01:00.795Z,52.55
2019-04-04T11:02:01.084Z,51.92
2019-04-04T11:03:00.778Z,50.90
2019-04-04T11:04:00.771Z,51.18
2019-04-04T11:05:00.837Z,51.31
2019-04-04T11:06:00.743Z,51.41
2019-04-04T11:07:00.726Z,51.31
2019-04-04T11:08:00.724Z,50.90
2019-04-04T11:09:00.707Z,51.25
2019-04-04T11:10:00.748Z,51.89
2019-04-04T11:11:00.729Z,52.70
2019-04-04T11:12:00.691Z,51.99
2019-04-04T11:13:02.875Z,52.48
2019-04-04T11:14:00.658Z,52.70
2019-04-04T11:15:00.644Z,53.01
2019-04-04T11:16:00.676Z,53.31
2019-04-04T11:17:00.626Z,52.50
2019-04-04T11:18:00.605Z,52.91
2019-04-04T11:19:00.609Z,52.17
2019-04-04T11:20:00.586Z,52.48
2019-04-04T11:21:00.616Z,52.45
2019-04-04T11:22:00.569Z,50.82
2019-04-04T11:23:00.556Z,51.20
2019-04-04T11:24:00.557Z,51.13
2019-04-04T11:25:00.538Z,51.43
2019-04-04T11:26:00.563Z,51.43
2019-04-04T11:27:00.507Z,51.74
2019-04-04T11:28:00.505Z,50.70
2019-04-04T11:29:00.528Z,51.00
2019-04-04T11:30:00.503Z,51.31
2019-04-04T11:31:00.466Z,51.20
2019-04-04T11:32:00.497Z,51.20
2019-04-04T11:33:00.445Z,50.52
2019-04-04T11:34:00.438Z,51.03
2019-04-04T11:35:00.416Z,51.43
2019-04-04T11:36:00.417Z,50.59
2019-04-04T11:37:00.417Z,50.80
2019-04-04T11:38:00.470Z,51.10
2019-04-04T11:39:00.386Z,51.00
2019-04-04T11:40:00.374Z,51.33
2019-04-04T11:41:00.357Z,51.64
2019-04-04T11:42:00.350Z,51.53
2019-04-04T11:43:00.362Z,52.15
2019-04-04T11:44:00.339Z,50.72
2019-04-04T11:45:00.327Z,51.33
2019-04-04T11:46:00.358Z,51.94
2019-04-04T11:47:00.296Z,52.07
2019-04-04T11:48:00.332Z,52.81
2019-04-04T11:49:00.280Z,53.22
2019-04-04T11:50:00.289Z,53.59
2019-04-04T11:51:00.264Z,52.07
2019-04-04T11:52:00.227Z,53.03
2019-04-04T11:53:00.218Z,53.77
2019-04-04T11:54:00.229Z,54.49
2019-04-04T11:55:00.247Z,52.42
2019-04-04T11:56:00.189Z,53.75
2019-04-04T11:57:00.179Z,53.96
2019-04-04T11:58:00.170Z,53.14
2019-04-04T11:59:00.192Z,53.14
2019-04-04T12:00:00.152Z,52.96
2019-04-04T12:01:00.132Z,54.08
2019-04-04T12:02:00.130Z,54.08
2019-04-04T12:03:00.146Z,54.16
2019-04-04T12:04:00.110Z,52.93
2019-04-04T12:05:00.104Z,54.44
2019-04-04T12:06:00.098Z,53.59
2019-04-04T12:07:00.080Z,51.66
2019-04-04T12:08:00.054Z,52.98
2019-04-04T12:09:00.082Z,52.45
2019-04-04T12:10:07.340Z,51.43
2019-04-04T12:11:01.027Z,51.13
2019-04-04T12:12:00.011Z,50.19
2019-04-04T12:13:00.008Z,50.70
2019-04-04T12:14:00.040Z,51.00
2019-04-04T12:14:59.988Z,51.41
2019-04-04T12:15:59.971Z,49.98
2019-04-04T12:16:59.959Z,50.70
2019-04-04T12:17:59.940Z,51.61
2019-04-04T12:18:59.969Z,50.62
2019-04-04T12:19:59.934Z,50.72
2019-04-04T12:20:59.908Z,51.64
2019-04-04T12:21:59.961Z,51.10
2019-04-04T12:22:59.899Z,51.33
2019-04-04T12:23:59.879Z,52.27
2019-04-04T12:24:59.949Z,51.97
2019-04-04T12:25:59.881Z,51.05
2019-04-04T12:26:59.869Z,52.07
2019-04-04T12:27:59.830Z,52.15
2019-04-04T12:28:59.827Z,51.23
2019-04-04T12:29:59.818Z,50.62
2019-04-04T12:30:59.839Z,51.56
2019-04-04T12:31:59.798Z,51.64
2019-04-04T12:32:59.781Z,52.86
2019-04-04T12:34:02.101Z,52.35
2019-04-04T12:34:59.810Z,51.03
2019-04-04T12:35:59.770Z,52.04
2019-04-04T12:36:59.791Z,52.66
2019-04-04T12:37:59.720Z,51.41
2019-04-04T12:38:59.732Z,51.72
2019-04-04T12:39:59.706Z,50.80
2019-04-04T12:40:59.735Z,51.41
2019-04-04T12:42:00.354Z,51.03
2019-04-04T12:42:59.750Z,51.94
2019-04-04T12:43:59.760Z,50.72
2019-04-04T12:44:59.650Z,51.53
2019-04-04T12:45:59.670Z,51.33
2019-04-04T12:46:59.627Z,51.43
2019-04-04T12:47:59.650Z,52.25
2019-04-04T12:48:59.611Z,51.43
2019-04-04T12:49:59.610Z,51.94
2019-04-04T12:50:59.588Z,50.59
2019-04-04T12:51:59.623Z,50.49
2019-04-04T12:52:59.571Z,51.41
2019-04-04T12:53:59.563Z,50.70
2019-04-04T12:54:59.532Z,50.90
2019-04-04T12:55:59.531Z,51.61
2019-04-04T12:56:59.565Z,51.61
2019-04-04T12:57:59.510Z,51.23
2019-04-04T12:58:59.539Z,51.53
2019-04-04T12:59:59.495Z,52.15
2019-04-04T13:00:59.470Z,52.35
2019-04-04T13:01:59.479Z,51.84
2019-04-04T13:02:59.471Z,51.20
2019-04-04T13:03:59.483Z,51.51
2019-04-04T13:04:59.435Z,51.61
2019-04-04T13:05:59.466Z,51.81
2019-04-04T13:06:59.401Z,51.72
2019-04-04T13:07:59.391Z,51.51
2019-04-04T13:08:59.431Z,51.41
2019-04-04T13:10:10.982Z,51.48
2019-04-04T13:11:00.357Z,51.18
2019-04-04T13:11:59.345Z,51.69
2019-04-04T13:12:59.341Z,50.34
2019-04-04T13:13:59.360Z,49.94
2019-04-04T13:14:59.317Z,50.95
2019-04-04T13:15:59.350Z,49.94
2019-04-04T13:16:59.374Z,49.25
2019-04-04T13:17:59.278Z,49.96
2019-04-04T13:18:59.291Z,50.26
2019-04-04T13:19:59.252Z,49.96
2019-04-04T13:20:59.244Z,50.29
2019-04-04T13:21:59.241Z,51.41
2019-04-04T13:22:59.223Z,51.10
2019-04-04T13:23:59.334Z,50.70
2019-04-04T13:24:59.307Z,51.31
2019-04-04T13:25:59.238Z,51.10
2019-04-04T13:26:59.172Z,51.72
2019-04-04T13:27:59.166Z,51.81
2019-04-04T13:28:59.195Z,51.00
2019-04-04T13:29:59.181Z,51.61
2019-04-04T13:30:59.174Z,51.72
2019-04-04T13:31:59.135Z,51.20
2019-04-04T13:32:59.104Z,51.23
2019-04-04T13:33:59.103Z,52.35
2019-04-04T13:35:00.016Z,52.45
2019-04-04T13:35:59.104Z,52.04
2019-04-04T13:36:59.106Z,52.07
2019-04-04T13:37:59.052Z,51.74
2019-04-04T13:38:59.054Z,51.25
2019-04-04T13:39:59.073Z,51.89
2019-04-04T13:40:59.033Z,51.89
2019-04-04T13:41:59.012Z,52.29
2019-04-04T13:42:59.003Z,52.50
2019-04-04T13:43:58.986Z,51.38
2019-04-04T13:44:59.012Z,51.58
2019-04-04T13:45:58.963Z,51.99
2019-04-04T13:47:02.802Z,51.81
2019-04-04T13:47:58.943Z,52.42
2019-04-04T13:48:58.933Z,52.34
2019-04-04T13:49:58.914Z,52.86
2019-04-04T13:50:58.936Z,53.06
2019-04-04T13:51:58.933Z,52.86
2019-04-04T13:52:58.895Z,53.49
2019-04-04T13:53:58.895Z,53.39
2019-04-04T13:54:58.883Z,53.59
2019-04-04T13:55:59.288Z,53.52
2019-04-04T13:56:58.964Z,54.13
2019-04-04T13:57:58.862Z,54.13
2019-04-04T13:59:00.990Z,53.80
2019-04-04T13:59:58.813Z,53.08
2019-04-04T14:00:58.801Z,53.59
2019-04-04T14:01:58.871Z,53.90
2019-04-04T14:02:58.804Z,53.62
2019-04-04T14:03:58.794Z,53.62
2019-04-04T14:05:09.200Z,53.92
2019-04-04T14:06:01.822Z,54.03
2019-04-04T14:06:58.763Z,53.83
2019-04-04T14:08:00.774Z,54.16
2019-04-04T14:08:58.754Z,54.87
2019-04-04T14:09:58.695Z,54.05
2019-04-04T14:10:58.715Z,54.05
2019-04-04T14:11:58.690Z,54.26
2019-04-04T14:12:58.665Z,54.67
2019-04-04T14:13:58.974Z,54.46
2019-04-04T14:14:58.643Z,54.67
2019-04-04T14:15:58.646Z,54.77
2019-04-04T14:16:58.622Z,55.08
2019-04-04T14:17:58.614Z,55.51
2019-04-04T14:18:58.658Z,55.71
2019-04-04T14:19:58.604Z,55.62
2019-04-04T14:21:03.858Z,55.33
2019-04-04T14:21:59.605Z,55.94
2019-04-04T14:22:58.555Z,55.64
2019-04-04T14:23:58.574Z,56.35
2019-04-04T14:24:58.544Z,55.74
2019-04-04T14:26:00.047Z,55.84
2019-04-04T14:26:58.506Z,55.71
2019-04-04T14:27:58.705Z,55.74
2019-04-04T14:28:58.522Z,56.15
2019-04-04T14:29:58.479Z,56.07
2019-04-04T14:30:58.502Z,57.12
2019-04-04T14:31:58.455Z,57.53
2019-04-04T14:32:58.444Z,57.33
2019-04-04T14:33:58.437Z,57.23
2019-04-04T14:34:58.425Z,56.82
2019-04-04T14:35:58.434Z,56.51
2019-04-04T14:36:58.394Z,56.79
2019-04-04T14:37:58.385Z,56.38
2019-04-04T14:38:58.374Z,55.97
2019-04-04T14:39:58.405Z,55.58
2019-04-04T14:41:10.251Z,56.02
2019-04-04T14:41:59.344Z,56.43
2019-04-04T14:42:58.335Z,56.64
2019-04-04T14:44:00.691Z,56.33
2019-04-04T14:44:59.849Z,56.64
2019-04-04T14:45:58.356Z,56.33
2019-04-04T14:46:58.295Z,56.54
2019-04-04T14:47:58.275Z,57.25
2019-04-04T14:48:58.265Z,56.43
2019-04-04T14:49:58.296Z,56.64
2019-04-04T14:50:58.263Z,56.77
2019-04-04T14:51:58.268Z,56.67
2019-04-04T14:52:58.260Z,56.77
2019-04-04T14:53:58.213Z,57.20
2019-04-04T14:54:58.232Z,57.51
2019-04-04T14:55:58.186Z,58.05
2019-04-04T14:56:58.182Z,58.36
2019-04-04T14:57:58.204Z,58.23
2019-04-04T14:58:58.167Z,58.03
2019-04-04T14:59:58.416Z,58.46
2019-04-04T15:00:58.156Z,58.46
2019-04-04T15:01:58.127Z,58.56
2019-04-04T15:02:58.114Z,58.44
2019-04-04T15:03:58.135Z,58.23
2019-04-04T15:04:58.096Z,57.92
2019-04-04T15:05:58.084Z,58.12
2019-04-04T15:06:58.114Z,58.54
2019-04-04T15:08:00.827Z,58.64
2019-04-04T15:08:58.046Z,58.44
2019-04-04T15:09:58.053Z,58.64
2019-04-04T15:10:58.027Z,58.54
2019-04-04T15:11:58.045Z,58.97
2019-04-04T15:12:58.037Z,58.87
2019-04-04T15:13:57.994Z,58.87
2019-04-04T15:14:57.977Z,58.87
2019-04-04T15:15:57.976Z,58.77
2019-04-04T15:16:57.985Z,58.77
2019-04-04T15:17:57.955Z,58.74
2019-04-04T15:18:57.933Z,58.26
2019-04-04T15:19:57.965Z,58.67
2019-04-04T15:20:57.915Z,58.77
2019-04-04T15:21:57.904Z,59.08
2019-04-04T15:22:57.924Z,58.87
2019-04-04T15:23:57.891Z,59.52
2019-04-04T15:24:57.896Z,59.82
2019-04-04T15:25:57.862Z,59.31
2019-04-04T15:26:57.844Z,59.62
2019-04-04T15:27:57.835Z,59.62
2019-04-04T15:28:57.889Z,58.90
2019-04-04T15:29:57.845Z,59.31
2019-04-04T15:30:57.805Z,59.41
2019-04-04T15:31:57.795Z,59.72
2019-04-04T15:32:57.790Z,59.00
2019-04-04T15:33:57.765Z,59.72
2019-04-04T15:34:57.798Z,60.23
2019-04-04T15:35:57.744Z,59.62
2019-04-04T15:36:57.735Z,60.03
2019-04-04T15:37:57.724Z,59.41
2019-04-04T15:38:57.742Z,59.52
2019-04-04T15:39:57.784Z,59.54
2019-04-04T15:40:57.725Z,59.54
2019-04-04T15:41:57.695Z,60.05
2019-04-04T15:42:57.679Z,60.39
2019-04-04T15:43:57.670Z,60.80
2019-04-04T15:44:57.704Z,60.91
2019-04-04T15:45:57.672Z,61.00
2019-04-04T15:46:57.625Z,60.91
2019-04-04T15:47:57.626Z,60.91
2019-04-04T15:48:57.635Z,61.32
2019-04-04T15:49:57.625Z,61.62
2019-04-04T15:50:57.575Z,61.62
2019-04-04T15:51:59.610Z,61.00
2019-04-04T15:52:57.593Z,61.18
2019-04-04T15:53:57.584Z,61.39
2019-04-04T15:54:57.541Z,60.88
2019-04-04T15:55:57.526Z,61.08
2019-04-04T15:56:57.582Z,61.08
2019-04-04T15:57:57.505Z,61.93
2019-04-04T15:58:57.493Z,61.83
2019-04-04T15:59:57.493Z,62.45
2019-04-04T16:00:57.502Z,62.24
2019-04-04T16:01:57.485Z,62.45
2019-04-04T16:02:57.455Z,62.75
2019-04-04T16:03:57.440Z,62.45
2019-04-04T16:04:57.439Z,62.34
2019-04-04T16:05:57.425Z,61.83
2019-04-04T16:06:57.513Z,62.55
2019-04-04T16:07:57.424Z,63.17
2019-04-04T16:08:57.393Z,63.29
2019-04-04T16:09:57.372Z,63.47
2019-04-04T16:10:59.652Z,62.75
2019-04-04T16:11:57.394Z,62.96
2019-04-04T16:12:57.361Z,62.65
2019-04-04T16:13:57.336Z,62.75
2019-04-04T16:14:57.314Z,62.85
2019-04-04T16:15:57.306Z,63.06
2019-04-04T16:16:57.324Z,62.78
2019-04-04T16:17:57.291Z,63.20
2019-04-04T16:18:57.294Z,63.64
2019-04-04T16:19:57.293Z,64.04
2019-04-04T16:20:57.256Z,64.36
2019-04-04T16:21:57.266Z,64.25
2019-04-04T16:22:57.267Z,64.36
2019-04-04T16:23:57.224Z,64.46
2019-04-04T16:24:57.302Z,64.97
2019-04-04T16:25:57.194Z,64.76
2019-04-04T16:26:57.181Z,65.17
2019-04-04T16:27:57.215Z,64.97
2019-04-04T16:28:57.180Z,65.28
2019-04-04T16:29:57.191Z,65.08
2019-04-04T16:30:57.143Z,65.17
2019-04-04T16:31:57.159Z,65.72
2019-04-04T16:32:57.188Z,66.34
2019-04-04T16:33:57.165Z,66.13
2019-04-04T16:34:57.122Z,66.03
2019-04-04T16:35:57.094Z,66.03
2019-04-04T16:36:57.104Z,66.24
2019-04-04T16:37:57.130Z,66.13
2019-04-04T16:38:57.044Z,65.92
2019-04-04T16:40:08.160Z,66.03
2019-04-04T16:41:00.366Z,66.34
2019-04-04T16:42:02.456Z,66.24
2019-04-04T16:42:58.056Z,66.44
2019-04-04T16:43:57.024Z,66.44
2019-04-04T16:44:57.014Z,66.64
2019-04-04T16:45:56.982Z,66.75
2019-04-04T16:46:56.971Z,66.54
2019-04-04T16:47:56.996Z,66.03
2019-04-04T16:48:56.935Z,66.13
2019-04-04T16:49:56.942Z,65.83
2019-04-04T16:50:56.937Z,65.83
2019-04-04T16:51:56.921Z,66.03
2019-04-04T16:52:56.952Z,66.27
2019-04-04T16:53:56.903Z,66.27
2019-04-04T16:54:56.901Z,66.58
2019-04-04T16:55:56.863Z,66.91
2019-04-04T16:56:56.903Z,67.02
2019-04-04T16:57:56.915Z,66.71
2019-04-04T16:58:56.832Z,66.81
2019-04-04T16:59:56.832Z,66.91
2019-04-04T17:00:56.884Z,66.67
2019-04-04T17:01:56.822Z,66.81
2019-04-04T17:02:56.822Z,66.40
2019-04-04T17:04:01.698Z,66.81
2019-04-04T17:04:57.832Z,66.71
2019-04-04T17:05:56.774Z,66.81
2019-04-04T17:06:56.762Z,66.81
2019-04-04T17:07:56.772Z,67.02
2019-04-04T17:08:56.742Z,67.02
2019-04-04T17:09:56.712Z,66.81
2019-04-04T17:10:56.747Z,66.30
2019-04-04T17:11:56.704Z,66.19
2019-04-04T17:12:56.712Z,65.89
2019-04-04T17:13:56.663Z,66.40
2019-04-04T17:14:56.681Z,66.09
2019-04-04T17:15:56.713Z,66.06
2019-04-04T17:16:56.654Z,65.65
2019-04-04T17:17:56.672Z,65.78
2019-04-04T17:18:56.693Z,65.86
2019-04-04T17:19:56.692Z,65.44
2019-04-04T17:20:56.625Z,65.16
2019-04-04T17:21:56.584Z,65.47
2019-04-04T17:22:56.624Z,66.19
2019-04-04T17:23:56.571Z,65.99
2019-04-04T17:24:56.579Z,65.99
2019-04-04T17:25:56.568Z,66.19
2019-04-04T17:26:57.603Z,66.09
2019-04-04T17:27:56.582Z,65.68
2019-04-04T17:28:56.582Z,66.02
2019-04-04T17:29:56.737Z,66.02
2019-04-04T17:30:56.672Z,66.36
2019-04-04T17:31:56.477Z,66.56
2019-04-04T17:32:56.683Z,66.46
2019-04-04T17:33:56.486Z,67.08
2019-04-04T17:34:57.039Z,67.18
2019-04-04T17:35:56.756Z,67.08
2019-04-04T17:36:56.452Z,66.87
2019-04-04T17:37:56.595Z,66.87
2019-04-04T17:38:56.411Z,67.18
2019-04-04T17:39:56.870Z,67.18
2019-04-04T17:40:56.371Z,67.42
2019-04-04T17:41:56.361Z,67.21
2019-04-04T17:42:56.762Z,67.63
2019-04-04T17:43:56.560Z,67.49
2019-04-04T17:44:56.363Z,67.18
2019-04-04T17:45:56.451Z,66.97
2019-04-04T17:46:56.323Z,67.08
2019-04-04T17:47:56.300Z,67.29
2019-04-04T17:48:56.530Z,67.08
2019-04-04T17:49:56.343Z,66.87
2019-04-04T17:50:56.425Z,66.97
2019-04-04T17:51:56.260Z,66.87
2019-04-04T17:52:56.240Z,67.00
2019-04-04T17:53:56.269Z,67.18
2019-04-04T17:54:56.748Z,67.18
2019-04-04T17:55:56.285Z,66.67
2019-04-04T17:56:56.228Z,66.77
2019-04-04T17:57:56.632Z,66.56
2019-04-04T17:58:56.207Z,66.67
2019-04-04T17:59:56.209Z,66.77
2019-04-04T18:00:56.161Z,66.77
2019-04-04T18:01:56.141Z,66.87
2019-04-04T18:02:56.128Z,66.87
2019-04-04T18:03:56.202Z,66.77
2019-04-04T18:04:56.153Z,66.67
2019-04-04T18:05:56.119Z,67.08
2019-04-04T18:06:56.089Z,67.42
2019-04-04T18:07:56.078Z,67.63
2019-04-04T18:08:56.090Z,67.93
2019-04-04T18:09:56.089Z,69.62
2019-04-04T18:10:56.061Z,69.38
2019-04-04T18:11:56.031Z,68.86
2019-04-04T18:12:56.077Z,68.24
2019-04-04T18:13:56.011Z,68.45
2019-04-04T18:14:56.750Z,68.04
2019-04-04T18:15:56.074Z,68.86
2019-04-04T18:16:55.994Z,68.55
2019-04-04T18:17:56.766Z,68.35
2019-04-04T18:18:55.959Z,68.04
2019-04-04T18:19:55.949Z,67.93
2019-04-04T18:20:56.021Z,68.04
2019-04-04T18:21:55.938Z,67.63
2019-04-04T18:22:55.925Z,67.63
2019-04-04T18:23:55.923Z,67.83
2019-04-04T18:24:55.931Z,67.93
2019-04-04T18:25:55.951Z,67.73
2019-04-04T18:26:55.912Z,67.93
2019-04-04T18:27:55.884Z,67.97
2019-04-04T18:28:55.842Z,68.38
2019-04-04T18:29:55.845Z,68.38
2019-04-04T18:30:55.823Z,68.48
2019-04-04T18:31:55.858Z,68.38
2019-04-04T18:32:55.826Z,68.17
2019-04-04T18:33:56.204Z,68.48
2019-04-04T18:34:55.819Z,67.97
2019-04-04T18:35:55.782Z,67.97
2019-04-04T18:36:55.878Z,68.17
2019-04-04T18:37:55.752Z,68.21
2019-04-04T18:38:55.792Z,68.41
2019-04-04T18:39:55.727Z,68.51
2019-04-04T18:40:55.722Z,68.41
2019-04-04T18:41:55.728Z,68.30
2019-04-04T18:42:55.709Z,68.51
2019-04-04T18:43:55.696Z,68.93
2019-04-04T18:44:55.667Z,68.41
2019-04-04T18:45:55.687Z,68.51
2019-04-04T18:46:55.662Z,68.62
2019-04-04T18:47:55.668Z,68.21
2019-04-04T18:48:55.646Z,68.10
2019-04-04T18:49:55.620Z,68.10
2019-04-04T18:50:55.627Z,68.00
2019-04-04T18:51:55.597Z,67.90
2019-04-04T18:52:55.598Z,68.00
2019-04-04T18:53:55.577Z,68.30
2019-04-04T18:54:55.592Z,68.30
2019-04-04T18:55:55.577Z,67.90
2019-04-04T18:56:55.536Z,68.07
2019-04-04T18:57:55.544Z,68.17
2019-04-04T18:58:55.549Z,68.27
2019-04-04T18:59:55.500Z,67.76
2019-04-04T19:00:55.523Z,67.97
2019-04-04T19:01:55.488Z,67.69
2019-04-04T19:02:55.485Z,68.00
2019-04-04T19:03:55.512Z,67.93
2019-04-04T19:04:55.457Z,68.44
2019-04-04T19:05:55.444Z,68.65
2019-04-04T19:06:55.443Z,68.34
2019-04-04T19:07:55.479Z,68.96
2019-04-04T19:08:55.416Z,68.41
2019-04-04T19:09:55.485Z,68.10
2019-04-04T19:10:55.378Z,68.41
2019-04-04T19:11:55.367Z,68.41
2019-04-04T19:13:04.692Z,67.58
2019-04-04T19:13:56.357Z,68.10
2019-04-04T19:14:55.425Z,67.58
2019-04-04T19:15:55.343Z,67.90
2019-04-04T19:16:55.327Z,68.10
2019-04-04T19:17:55.310Z,68.10
2019-04-04T19:18:55.353Z,68.24
2019-04-04T19:19:55.290Z,68.54
2019-04-04T19:20:55.326Z,68.44
2019-04-04T19:21:55.273Z,68.75
2019-04-04T19:22:55.280Z,68.75
2019-04-04T19:23:55.246Z,69.61
2019-04-04T19:24:55.282Z,69.61
2019-04-04T19:25:55.262Z,70.09
2019-04-04T19:26:55.216Z,69.17
2019-04-04T19:27:55.207Z,69.51
2019-04-04T19:28:55.197Z,68.96
2019-04-04T19:29:55.185Z,69.06